sensor_id;sensor_type;location;lat;lon;timestamp;pressure;altitude;pressure_sealevel;temperature;humidity
2785;BME280;57944;48.722;9.316;2023-04-23T00:02:15;97433.19;;;13.41;100.00
2785;BME280;57944;48.722;9.316;2023-04-23T00:04:49;97444.53;;;13.45;100.00
2785;BME280;57944;48.722;9.316;2023-04-23T00:07:20;97432.06;;;13.37;100.00
2785;BME280;57944;48.722;9.316;2023-04-23T00:09:56;97437.19;;;13.37;100.00
2785;BME280;57944;48.722;9.316;2023-04-23T00:12:28;97436.22;;;13.38;100.00
2785;BME280;57944;48.722;9.316;2023-04-23T00:14:59;97428.19;;;13.46;100.00
2785;BME280;57944;48.722;9.316;2023-04-23T00:17:29;97433.19;;;13.41;100.00
2785;BME280;57944;48.722;9.316;2023-04-23T00:19:59;97425.19;;;13.26;100.00
2785;BME280;57944;48.722;9.316;2023-04-23T00:22:29;97419.94;;;13.21;100.00
2785;BME280;57944;48.722;9.316;2023-04-23T00:25:02;97432.28;;;13.24;100.00
2785;BME280;57944;48.722;9.316;2023-04-23T00:27:32;97430.28;;;13.26;100.00
2785;BME280;57944;48.722;9.316;2023-04-23T00:30:02;97429.16;;;13.22;100.00
2785;BME280;57944;48.722;9.316;2023-04-23T00:32:33;97429.19;;;13.33;100.00
2785;BME280;57944;48.722;9.316;2023-04-23T00:35:03;97429.31;;;13.27;100.00
2785;BME280;57944;48.722;9.316;2023-04-23T00:37:37;97432.63;;;13.27;100.00
2785;BME280;57944;48.722;9.316;2023-04-23T00:40:10;97440.09;;;13.29;100.00
2785;BME280;57944;48.722;9.316;2023-04-23T00:42:40;97437.63;;;13.22;100.00
2785;BME280;57944;48.722;9.316;2023-04-23T00:45:11;97444.84;;;13.25;100.00
2785;BME280;57944;48.722;9.316;2023-04-23T00:47:41;97438.94;;;13.25;100.00
2785;BME280;57944;48.722;9.316;2023-04-23T00:50:12;97441.84;;;13.16;100.00
2785;BME280;57944;48.722;9.316;2023-04-23T00:52:42;97443.94;;;13.19;100.00
2785;BME280;57944;48.722;9.316;2023-04-23T00:55:14;97450.53;;;13.15;100.00
2785;BME280;57944;48.722;9.316;2023-04-23T00:57:47;97456.72;;;12.96;100.00
2785;BME280;57944;48.722;9.316;2023-04-23T01:00:17;97453.78;;;12.81;100.00
2785;BME280;57944;48.722;9.316;2023-04-23T01:02:49;97447.75;;;12.63;100.00
2785;BME280;57944;48.722;9.316;2023-04-23T01:05:20;97457.34;;;12.49;100.00
2785;BME280;57944;48.722;9.316;2023-04-23T01:07:52;97455.53;;;12.38;100.00
2785;BME280;57944;48.722;9.316;2023-04-23T01:10:26;97462.78;;;12.23;100.00
2785;BME280;57944;48.722;9.316;2023-04-23T01:12:58;97460.59;;;12.08;100.00
2785;BME280;57944;48.722;9.316;2023-04-23T01:15:28;97462.09;;;11.97;100.00
2785;BME280;57944;48.722;9.316;2023-04-23T01:17:59;97459.03;;;11.89;100.00
2785;BME280;57944;48.722;9.316;2023-04-23T01:20:31;97468.53;;;11.81;100.00
2785;BME280;57944;48.722;9.316;2023-04-23T01:23:04;97465.69;;;11.71;100.00
2785;BME280;57944;48.722;9.316;2023-04-23T01:25:34;97466.03;;;11.56;100.00
2785;BME280;57944;48.722;9.316;2023-04-23T01:28:05;97473.88;;;11.55;100.00
2785;BME280;57944;48.722;9.316;2023-04-23T01:30:35;97471.16;;;11.50;100.00
2785;BME280;57944;48.722;9.316;2023-04-23T01:33:06;97474.22;;;11.40;100.00
2785;BME280;57944;48.722;9.316;2023-04-23T01:35:38;97473.31;;;11.53;100.00
2785;BME280;57944;48.722;9.316;2023-04-23T01:38:13;97480.41;;;11.51;100.00
2785;BME280;57944;48.722;9.316;2023-04-23T01:40:43;97480.41;;;11.51;100.00
2785;BME280;57944;48.722;9.316;2023-04-23T01:43:13;97485.50;;;11.51;100.00
2785;BME280;57944;48.722;9.316;2023-04-23T01:45:44;97475.69;;;11.48;100.00
2785;BME280;57944;48.722;9.316;2023-04-23T01:48:14;97487.47;;;11.49;100.00
2785;BME280;57944;48.722;9.316;2023-04-23T01:50:45;97489.81;;;11.50;100.00
2785;BME280;57944;48.722;9.316;2023-04-23T01:53:18;97488.63;;;11.53;100.00
2785;BME280;57944;48.722;9.316;2023-04-23T01:55:49;97493.28;;;11.56;100.00
2785;BME280;57944;48.722;9.316;2023-04-23T01:58:20;97493.28;;;11.56;100.00
2785;BME280;57944;48.722;9.316;2023-04-23T02:00:51;97488.63;;;11.53;100.00
2785;BME280;57944;48.722;9.316;2023-04-23T02:03:22;97491.59;;;11.50;100.00
2785;BME280;57944;48.722;9.316;2023-04-23T02:05:52;97492.59;;;11.49;100.00
2785;BME280;57944;48.722;9.316;2023-04-23T02:08:27;97493.19;;;11.44;100.00
2785;BME280;57944;48.722;9.316;2023-04-23T02:10:57;97496.53;;;11.45;100.00
2785;BME280;57944;48.722;9.316;2023-04-23T02:13:27;97495.84;;;11.56;100.00
2785;BME280;57944;48.722;9.316;2023-04-23T02:15:57;97501.09;;;11.61;100.00
2785;BME280;57944;48.722;9.316;2023-04-23T02:18:27;97502.69;;;11.62;100.00
2785;BME280;57944;48.722;9.316;2023-04-23T02:20:57;97500.94;;;11.56;100.00
2785;BME280;57944;48.722;9.316;2023-04-23T02:23:31;97513.63;;;11.44;100.00
2785;BME280;57944;48.722;9.316;2023-04-23T02:26:01;97501.09;;;11.61;100.00
2785;BME280;57944;48.722;9.316;2023-04-23T02:28:31;97510.47;;;11.67;100.00
2785;BME280;57944;48.722;9.316;2023-04-23T02:31:01;97514.44;;;11.63;100.00
2785;BME280;57944;48.722;9.316;2023-04-23T02:33:31;97507.81;;;11.55;100.00
2785;BME280;57944;48.722;9.316;2023-04-23T02:36:01;97509.34;;;11.63;100.00
2785;BME280;57944;48.722;9.316;2023-04-23T02:38:34;97502.81;;;11.67;100.00
2785;BME280;57944;48.722;9.316;2023-04-23T02:41:07;97499.28;;;11.68;100.00
2785;BME280;57944;48.722;9.316;2023-04-23T02:43:37;97502.09;;;11.60;100.00
2785;BME280;57944;48.722;9.316;2023-04-23T02:46:07;97500.41;;;11.54;100.00
2785;BME280;57944;48.722;9.316;2023-04-23T02:48:38;97499.41;;;11.55;100.00
2785;BME280;57944;48.722;9.316;2023-04-23T02:51:11;97501.59;;;11.51;100.00
2785;BME280;57944;48.722;9.316;2023-04-23T02:53:44;97510.28;;;11.44;100.00
2785;BME280;57944;48.722;9.316;2023-04-23T02:56:14;97511.66;;;11.46;100.00
2785;BME280;57944;48.722;9.316;2023-04-23T02:58:43;97503.38;;;11.51;100.00
2785;BME280;57944;48.722;9.316;2023-04-23T03:01:13;97510.38;;;11.55;100.00
2785;BME280;57944;48.722;9.316;2023-04-23T03:03:44;97510.38;;;11.55;100.00
2785;BME280;57944;48.722;9.316;2023-04-23T03:06:14;97518.09;;;11.49;100.00
2785;BME280;57944;48.722;9.316;2023-04-23T03:08:47;97514.56;;;11.50;100.00
2785;BME280;57944;48.722;9.316;2023-04-23T03:11:17;97517.69;;;11.52;100.00
2785;BME280;57944;48.722;9.316;2023-04-23T03:13:47;97508.47;;;11.51;100.00
2785;BME280;57944;48.722;9.316;2023-04-23T03:16:17;97505.91;;;11.51;100.00
2785;BME280;57944;48.722;9.316;2023-04-23T03:18:47;97500.81;;;11.51;100.00
2785;BME280;57944;48.722;9.316;2023-04-23T03:21:17;97496.84;;;11.55;100.00
2785;BME280;57944;48.722;9.316;2023-04-23T03:23:51;97508.31;;;11.46;100.00
2785;BME280;57944;48.722;9.316;2023-04-23T03:26:21;97505.88;;;11.32;100.00
2785;BME280;57944;48.722;9.316;2023-04-23T03:28:51;97500.94;;;11.31;100.00
2785;BME280;57944;48.722;9.316;2023-04-23T03:31:21;97493.53;;;11.29;100.00
2785;BME280;57944;48.722;9.316;2023-04-23T03:33:52;97486.38;;;11.38;100.00
2785;BME280;57944;48.722;9.316;2023-04-23T03:36:28;97491.97;;;11.28;100.00
2785;BME280;57944;48.722;9.316;2023-04-23T03:39:02;97495.06;;;11.30;100.00
2785;BME280;57944;48.722;9.316;2023-04-23T03:41:46;97499.81;;;11.27;100.00
2785;BME280;57944;48.722;9.316;2023-04-23T03:44:19;97490.22;;;11.22;100.00
2785;BME280;57944;48.722;9.316;2023-04-23T03:46:49;97494.09;;;11.31;100.00
2785;BME280;57944;48.722;9.316;2023-04-23T03:49:20;97498.22;;;11.32;100.00
2785;BME280;57944;48.722;9.316;2023-04-23T03:51:50;97489.41;;;11.28;100.00
2785;BME280;57944;48.722;9.316;2023-04-23T03:54:23;97489.03;;;11.25;100.00
2785;BME280;57944;48.722;9.316;2023-04-23T03:57:03;97489.09;;;11.18;100.00
2785;BME280;57944;48.722;9.316;2023-04-23T03:59:37;97500.13;;;11.12;100.00
2785;BME280;57944;48.722;9.316;2023-04-23T04:02:08;97499.91;;;11.13;100.00
2785;BME280;57944;48.722;9.316;2023-04-23T04:04:38;97511.31;;;11.11;100.00
2785;BME280;57944;48.722;9.316;2023-04-23T04:07:09;97516.66;;;11.03;100.00
2785;BME280;57944;48.722;9.316;2023-04-23T04:09:41;97514.09;;;11.03;100.00
2785;BME280;57944;48.722;9.316;2023-04-23T04:12:13;97512.72;;;11.07;100.00
2785;BME280;57944;48.722;9.316;2023-04-23T04:14:43;97510.94;;;11.07;100.00
2785;BME280;57944;48.722;9.316;2023-04-23T04:17:13;97512.06;;;11.18;100.00
2785;BME280;57944;48.722;9.316;2023-04-23T04:19:43;97517.97;;;11.12;100.00
2785;BME280;57944;48.722;9.316;2023-04-23T04:22:13;97524.81;;;11.18;100.00
2785;BME280;57944;48.722;9.316;2023-04-23T04:24:46;97521.59;;;11.29;100.00
2785;BME280;57944;48.722;9.316;2023-04-23T04:27:18;97519.38;;;11.33;100.00
2785;BME280;57944;48.722;9.316;2023-04-23T04:29:48;97514.13;;;11.28;100.00
2785;BME280;57944;48.722;9.316;2023-04-23T04:32:18;97509.25;;;11.26;100.00
2785;BME280;57944;48.722;9.316;2023-04-23T04:34:49;97508.81;;;11.29;100.00
2785;BME280;57944;48.722;9.316;2023-04-23T04:37:20;97516.06;;;11.32;100.00
2785;BME280;57944;48.722;9.316;2023-04-23T04:39:52;97518.44;;;11.27;100.00
2785;BME280;57944;48.722;9.316;2023-04-23T04:42:23;97524.22;;;11.16;100.00
2785;BME280;57944;48.722;9.316;2023-04-23T04:44:52;97523.97;;;11.24;100.00
2785;BME280;57944;48.722;9.316;2023-04-23T04:47:24;97519.88;;;11.23;100.00
2785;BME280;57944;48.722;9.316;2023-04-23T04:49:54;97521.50;;;11.11;100.00
2785;BME280;57944;48.722;9.316;2023-04-23T04:52:26;97522.25;;;11.18;100.00
2785;BME280;57944;48.722;9.316;2023-04-23T04:54:59;97521.09;;;11.14;100.00
2785;BME280;57944;48.722;9.316;2023-04-23T04:57:28;97511.72;;;11.08;100.00
2785;BME280;57944;48.722;9.316;2023-04-23T05:00:01;97524.88;;;11.05;100.00
2785;BME280;57944;48.722;9.316;2023-04-23T05:02:49;97520.38;;;11.07;100.00
2785;BME280;57944;48.722;9.316;2023-04-23T05:05:21;97510.94;;;11.07;100.00
2785;BME280;57944;48.722;9.316;2023-04-23T05:07:51;97517.75;;;11.13;100.00
2785;BME280;57944;48.722;9.316;2023-04-23T05:10:28;97518.69;;;11.19;100.00
2785;BME280;57944;48.722;9.316;2023-04-23T05:12:58;97519.66;;;11.25;100.00
2785;BME280;57944;48.722;9.316;2023-04-23T05:15:29;97518.63;;;11.32;100.00
2785;BME280;57944;48.722;9.316;2023-04-23T05:17:58;97519.72;;;11.43;100.00
2785;BME280;57944;48.722;9.316;2023-04-23T05:20:28;97520.75;;;11.35;100.00
2785;BME280;57944;48.722;9.316;2023-04-23T05:22:58;97511.38;;;11.54;100.00
2785;BME280;57944;48.722;9.316;2023-04-23T05:25:31;97510.91;;;11.64;100.00
2785;BME280;57944;48.722;9.316;2023-04-23T05:28:01;97524.22;;;11.66;100.00
2785;BME280;57944;48.722;9.316;2023-04-23T05:30:31;97533.09;;;11.63;100.00
2785;BME280;57944;48.722;9.316;2023-04-23T05:33:01;97531.03;;;11.54;100.00
2785;BME280;57944;48.722;9.316;2023-04-23T05:35:32;97526.94;;;11.71;100.00
2785;BME280;57944;48.722;9.316;2023-04-23T05:38:01;97533.16;;;12.00;100.00
2785;BME280;57944;48.722;9.316;2023-04-23T05:40:35;97529.56;;;12.45;100.00
2785;BME280;57944;48.722;9.316;2023-04-23T05:43:05;97530.91;;;13.08;100.00
2785;BME280;57944;48.722;9.316;2023-04-23T05:45:34;97533.56;;;14.14;100.00
2785;BME280;57944;48.722;9.316;2023-04-23T05:48:04;97527.25;;;14.57;100.00
2785;BME280;57944;48.722;9.316;2023-04-23T05:50:34;97523.72;;;14.34;100.00
2785;BME280;57944;48.722;9.316;2023-04-23T05:53:04;97520.63;;;14.32;100.00
2785;BME280;57944;48.722;9.316;2023-04-23T05:55:37;97518.53;;;14.17;100.00
2785;BME280;57944;48.722;9.316;2023-04-23T05:58:07;97518.94;;;14.26;100.00
2785;BME280;57944;48.722;9.316;2023-04-23T06:00:37;97523.19;;;14.20;100.00
2785;BME280;57944;48.722;9.316;2023-04-23T06:03:07;97522.59;;;14.82;100.00
2785;BME280;57944;48.722;9.316;2023-04-23T06:05:37;97526.41;;;14.80;100.00
2785;BME280;57944;48.722;9.316;2023-04-23T06:08:09;97534.06;;;14.39;100.00
2785;BME280;57944;48.722;9.316;2023-04-23T06:10:41;97527.72;;;14.42;100.00
2785;BME280;57944;48.722;9.316;2023-04-23T06:13:12;97521.03;;;14.52;100.00
2785;BME280;57944;48.722;9.316;2023-04-23T06:15:42;97529.06;;;16.03;100.00
2785;BME280;57944;48.722;9.316;2023-04-23T06:18:12;97538.31;;;17.56;100.00
2785;BME280;57944;48.722;9.316;2023-04-23T06:20:42;97538.75;;;18.33;100.00
2785;BME280;57944;48.722;9.316;2023-04-23T06:23:13;97536.00;;;17.97;100.00
2785;BME280;57944;48.722;9.316;2023-04-23T06:25:45;97527.78;;;17.58;100.00
2785;BME280;57944;48.722;9.316;2023-04-23T06:28:15;97530.81;;;16.68;100.00
2785;BME280;57944;48.722;9.316;2023-04-23T06:31:06;97521.19;;;16.31;100.00
2785;BME280;57944;48.722;9.316;2023-04-23T06:33:36;97523.38;;;16.23;100.00
2785;BME280;57944;48.722;9.316;2023-04-23T06:36:06;97538.03;;;16.22;100.00
2785;BME280;57944;48.722;9.316;2023-04-23T06:38:37;97530.88;;;16.24;100.00
2785;BME280;57944;48.722;9.316;2023-04-23T06:41:09;97524.03;;;16.57;100.00
2785;BME280;57944;48.722;9.316;2023-04-23T06:43:40;97530.81;;;16.68;100.00
2785;BME280;57944;48.722;9.316;2023-04-23T06:46:29;97514.03;;;16.83;100.00
2785;BME280;57944;48.722;9.316;2023-04-23T06:48:59;97508.19;;;16.43;100.00
2785;BME280;57944;48.722;9.316;2023-04-23T06:51:29;97508.56;;;16.52;100.00
2785;BME280;57944;48.722;9.316;2023-04-23T06:54:00;97501.28;;;16.44;100.00
2785;BME280;57944;48.722;9.316;2023-04-23T06:56:32;97501.53;;;16.69;100.00
2785;BME280;57944;48.722;9.316;2023-04-23T06:59:02;97508.41;;;16.91;100.00
2785;BME280;57944;48.722;9.316;2023-04-23T07:01:34;97507.09;;;17.15;98.48
2785;BME280;57944;48.722;9.316;2023-04-23T07:04:04;97501.44;;;17.13;98.26
2785;BME280;57944;48.722;9.316;2023-04-23T07:06:34;97504.16;;;16.74;100.00
2785;BME280;57944;48.722;9.316;2023-04-23T07:09:04;97499.16;;;16.41;100.00
2785;BME280;57944;48.722;9.316;2023-04-23T07:11:37;97488.09;;;16.40;100.00
2785;BME280;57944;48.722;9.316;2023-04-23T07:14:07;97490.78;;;16.50;100.00
2785;BME280;57944;48.722;9.316;2023-04-23T07:16:37;97490.44;;;16.20;100.00
2785;BME280;57944;48.722;9.316;2023-04-23T07:19:07;97475.91;;;15.86;100.00
2785;BME280;57944;48.722;9.316;2023-04-23T07:21:37;97487.00;;;15.36;100.00
2785;BME280;57944;48.722;9.316;2023-04-23T07:24:08;97477.66;;;15.64;100.00
2785;BME280;57944;48.722;9.316;2023-04-23T07:26:40;97485.81;;;17.25;100.00
2785;BME280;57944;48.722;9.316;2023-04-23T07:29:10;97488.03;;;18.85;86.15
2785;BME280;57944;48.722;9.316;2023-04-23T07:31:41;97485.09;;;19.89;76.26
2785;BME280;57944;48.722;9.316;2023-04-23T07:34:11;97486.16;;;21.21;60.29
2785;BME280;57944;48.722;9.316;2023-04-23T07:36:41;97483.25;;;21.28;59.90
2785;BME280;57944;48.722;9.316;2023-04-23T07:39:11;97490.75;;;22.49;54.66
2785;BME280;57944;48.722;9.316;2023-04-23T07:41:44;97488.03;;;22.92;52.03
2785;BME280;57944;48.722;9.316;2023-04-23T07:44:14;97475.00;;;22.97;52.22
2785;BME280;57944;48.722;9.316;2023-04-23T07:46:44;97480.47;;;23.70;50.14
2785;BME280;57944;48.722;9.316;2023-04-23T07:49:14;97477.91;;;23.98;49.43
2785;BME280;57944;48.722;9.316;2023-04-23T07:51:44;97480.41;;;23.75;48.95
2785;BME280;57944;48.722;9.316;2023-04-23T07:54:14;97485.94;;;23.74;49.11
2785;BME280;57944;48.722;9.316;2023-04-23T07:56:46;97482.16;;;23.80;46.88
2785;BME280;57944;48.722;9.316;2023-04-23T07:59:16;97471.41;;;24.59;45.87
2785;BME280;57944;48.722;9.316;2023-04-23T08:01:46;97470.84;;;24.12;45.78
2785;BME280;57944;48.722;9.316;2023-04-23T08:04:16;97465.94;;;23.41;48.15
2785;BME280;57944;48.722;9.316;2023-04-23T08:06:46;97463.50;;;23.31;46.03
2785;BME280;57944;48.722;9.316;2023-04-23T08:09:17;97461.25;;;23.11;47.35
2785;BME280;57944;48.722;9.316;2023-04-23T08:11:49;97459.59;;;21.63;49.06
2785;BME280;57944;48.722;9.316;2023-04-23T08:14:20;97456.41;;;20.45;54.46
2785;BME280;57944;48.722;9.316;2023-04-23T08:16:50;97451.00;;;19.86;56.07
2785;BME280;57944;48.722;9.316;2023-04-23T08:19:20;97449.22;;;19.72;56.53
2785;BME280;57944;48.722;9.316;2023-04-23T08:21:50;97449.22;;;18.28;66.50
2785;BME280;57944;48.722;9.316;2023-04-23T08:24:20;97444.25;;;18.06;70.94
2785;BME280;57944;48.722;9.316;2023-04-23T08:26:53;97446.31;;;18.09;71.98
2785;BME280;57944;48.722;9.316;2023-04-23T08:29:23;97443.84;;;19.48;59.82
2785;BME280;57944;48.722;9.316;2023-04-23T08:31:53;97445.16;;;20.99;52.40
2785;BME280;57944;48.722;9.316;2023-04-23T08:34:23;97445.03;;;21.44;50.40
2785;BME280;57944;48.722;9.316;2023-04-23T08:36:53;97445.13;;;21.81;50.38
2785;BME280;57944;48.722;9.316;2023-04-23T08:39:23;97442.00;;;21.60;51.29
2785;BME280;57944;48.722;9.316;2023-04-23T08:41:59;97437.50;;;21.66;50.37
2785;BME280;57944;48.722;9.316;2023-04-23T08:44:34;97437.91;;;21.25;49.97
2785;BME280;57944;48.722;9.316;2023-04-23T08:47:06;97431.34;;;21.33;49.22
2785;BME280;57944;48.722;9.316;2023-04-23T08:49:40;97424.50;;;21.18;50.28
2785;BME280;57944;48.722;9.316;2023-04-23T08:52:15;97427.53;;;21.97;50.23
2785;BME280;57944;48.722;9.316;2023-04-23T08:54:49;97428.84;;;20.98;51.17
2785;BME280;57944;48.722;9.316;2023-04-23T08:57:23;97427.34;;;20.53;50.75
2785;BME280;57944;48.722;9.316;2023-04-23T08:59:54;97433.19;;;21.80;48.27
2785;BME280;57944;48.722;9.316;2023-04-23T09:02:24;97422.47;;;22.49;46.18
2785;BME280;57944;48.722;9.316;2023-04-23T09:04:55;97419.06;;;21.92;48.00
2785;BME280;57944;48.722;9.316;2023-04-23T09:07:25;97420.13;;;22.09;46.87
2785;BME280;57944;48.722;9.316;2023-04-23T09:09:55;97424.16;;;22.21;47.96
2785;BME280;57944;48.722;9.316;2023-04-23T09:12:28;97422.53;;;22.95;47.11
2785;BME280;57944;48.722;9.316;2023-04-23T09:14:58;97421.44;;;24.21;44.01
2785;BME280;57944;48.722;9.316;2023-04-23T09:17:28;97410.41;;;24.83;41.94
2785;BME280;57944;48.722;9.316;2023-04-23T09:19:58;97413.91;;;25.98;39.37
2785;BME280;57944;48.722;9.316;2023-04-23T09:22:38;97412.19;;;26.80;38.24
2785;BME280;57944;48.722;9.316;2023-04-23T09:25:13;97407.31;;;25.92;41.34
2785;BME280;57944;48.722;9.316;2023-04-23T09:27:48;97406.28;;;25.61;39.74
2785;BME280;57944;48.722;9.316;2023-04-23T09:30:18;97394.25;;;25.83;37.85
2785;BME280;57944;48.722;9.316;2023-04-23T09:32:51;97395.47;;;26.20;37.35
2785;BME280;57944;48.722;9.316;2023-04-23T09:35:21;97381.31;;;25.78;39.28
2785;BME280;57944;48.722;9.316;2023-04-23T09:37:51;97377.94;;;26.38;36.72
2785;BME280;57944;48.722;9.316;2023-04-23T09:40:23;97369.56;;;27.27;35.62
2785;BME280;57944;48.722;9.316;2023-04-23T09:42:55;97369.63;;;28.11;34.78
2785;BME280;57944;48.722;9.316;2023-04-23T09:45:27;97371.78;;;28.29;33.44
2785;BME280;57944;48.722;9.316;2023-04-23T09:47:58;97375.81;;;25.31;38.68
2785;BME280;57944;48.722;9.316;2023-04-23T09:50:32;97362.81;;;24.68;39.40
2785;BME280;57944;48.722;9.316;2023-04-23T09:53:03;97367.28;;;24.77;37.54
2785;BME280;57944;48.722;9.316;2023-04-23T09:55:36;97362.94;;;25.34;39.83
2785;BME280;57944;48.722;9.316;2023-04-23T09:58:13;97367.91;;;25.62;37.83
2785;BME280;57944;48.722;9.316;2023-04-23T10:00:43;97359.53;;;25.16;37.04
2785;BME280;57944;48.722;9.316;2023-04-23T10:03:13;97363.63;;;25.75;36.60
2785;BME280;57944;48.722;9.316;2023-04-23T10:05:44;97354.59;;;26.33;35.95
2785;BME280;57944;48.722;9.316;2023-04-23T10:08:27;97346.28;;;27.34;34.67
2785;BME280;57944;48.722;9.316;2023-04-23T10:10:58;97345.97;;;28.19;34.15
2785;BME280;57944;48.722;9.316;2023-04-23T10:13:48;97350.88;;;28.42;32.45
2785;BME280;57944;48.722;9.316;2023-04-23T10:16:20;97332.34;;;27.93;31.79
2785;BME280;57944;48.722;9.316;2023-04-23T10:18:59;97331.72;;;28.29;31.33
2785;BME280;57944;48.722;9.316;2023-04-23T10:21:30;97325.06;;;28.65;31.35
2785;BME280;57944;48.722;9.316;2023-04-23T10:24:19;97327.09;;;29.57;30.17
2785;BME280;57944;48.722;9.316;2023-04-23T10:26:52;97329.75;;;29.98;29.77
2785;BME280;57944;48.722;9.316;2023-04-23T10:29:31;97316.00;;;28.87;30.30
2785;BME280;57944;48.722;9.316;2023-04-23T10:32:03;97324.19;;;28.85;31.34
2785;BME280;57944;48.722;9.316;2023-04-23T10:34:34;97313.47;;;28.54;31.00
2785;BME280;57944;48.722;9.316;2023-04-23T10:37:05;97314.81;;;30.02;28.78
2785;BME280;57944;48.722;9.316;2023-04-23T10:39:35;97309.81;;;29.56;28.67
2785;BME280;57944;48.722;9.316;2023-04-23T10:42:05;97305.91;;;28.52;31.02
2785;BME280;57944;48.722;9.316;2023-04-23T10:44:40;97306.03;;;27.47;32.04
2785;BME280;57944;48.722;9.316;2023-04-23T10:47:25;97301.69;;;28.26;31.12
2785;BME280;57944;48.722;9.316;2023-04-23T10:49:55;97292.28;;;28.59;31.21
2785;BME280;57944;48.722;9.316;2023-04-23T10:52:24;97289.31;;;27.81;32.31
2785;BME280;57944;48.722;9.316;2023-04-23T10:54:57;97286.16;;;27.46;32.53
2785;BME280;57944;48.722;9.316;2023-04-23T10:57:28;97279.72;;;26.37;33.00
2785;BME280;57944;48.722;9.316;2023-04-23T11:00:00;97277.50;;;25.92;34.53
2785;BME280;57944;48.722;9.316;2023-04-23T11:02:42;97274.59;;;26.02;34.12
2785;BME280;57944;48.722;9.316;2023-04-23T11:05:12;97267.06;;;25.92;33.99
2785;BME280;57944;48.722;9.316;2023-04-23T11:08:01;97265.56;;;25.91;34.31
2785;BME280;57944;48.722;9.316;2023-04-23T11:10:54;97262.56;;;27.04;32.07
2785;BME280;57944;48.722;9.316;2023-04-23T11:13:25;97259.16;;;28.54;30.04
2785;BME280;57944;48.722;9.316;2023-04-23T11:16:13;97259.44;;;29.95;29.86
2785;BME280;57944;48.722;9.316;2023-04-23T11:18:54;97255.09;;;30.15;29.23
2785;BME280;57944;48.722;9.316;2023-04-23T11:21:55;97260.78;;;29.20;30.37
2785;BME280;57944;48.722;9.316;2023-04-23T11:24:26;97257.41;;;28.46;31.30
2785;BME280;57944;48.722;9.316;2023-04-23T11:26:56;97254.88;;;27.92;30.72
2785;BME280;57944;48.722;9.316;2023-04-23T11:29:27;97250.50;;;27.75;30.48
2785;BME280;57944;48.722;9.316;2023-04-23T11:32:00;97253.28;;;28.12;30.63
2785;BME280;57944;48.722;9.316;2023-04-23T11:34:31;97241.34;;;28.02;31.08
2785;BME280;57944;48.722;9.316;2023-04-23T11:37:02;97248.09;;;29.22;29.64
2785;BME280;57944;48.722;9.316;2023-04-23T11:39:33;97241.34;;;29.49;28.78
2785;BME280;57944;48.722;9.316;2023-04-23T11:42:03;97237.03;;;30.61;28.05
2785;BME280;57944;48.722;9.316;2023-04-23T11:44:37;97235.50;;;31.46;27.28
2785;BME280;57944;48.722;9.316;2023-04-23T11:47:11;97226.94;;;30.63;28.36
2785;BME280;57944;48.722;9.316;2023-04-23T11:49:43;97221.75;;;30.50;28.06
2785;BME280;57944;48.722;9.316;2023-04-23T11:52:13;97222.44;;;30.47;28.35
2785;BME280;57944;48.722;9.316;2023-04-23T11:54:43;97206.22;;;30.14;28.53
2785;BME280;57944;48.722;9.316;2023-04-23T11:57:13;97207.69;;;29.39;29.62
2785;BME280;57944;48.722;9.316;2023-04-23T11:59:43;97201.94;;;29.61;28.66
2785;BME280;57944;48.722;9.316;2023-04-23T12:02:15;97202.25;;;29.88;28.48
2785;BME280;57944;48.722;9.316;2023-04-23T12:04:45;97194.13;;;30.25;28.55
2785;BME280;57944;48.722;9.316;2023-04-23T12:07:15;97193.25;;;30.05;29.07
2785;BME280;57944;48.722;9.316;2023-04-23T12:09:57;97190.47;;;30.14;27.98
2785;BME280;57944;48.722;9.316;2023-04-23T12:12:32;97190.03;;;29.24;29.29
2785;BME280;57944;48.722;9.316;2023-04-23T12:15:03;97187.69;;;28.82;29.46
2785;BME280;57944;48.722;9.316;2023-04-23T12:17:36;97183.28;;;28.98;29.66
2785;BME280;57944;48.722;9.316;2023-04-23T12:20:09;97179.53;;;28.59;29.44
2785;BME280;57944;48.722;9.316;2023-04-23T12:22:40;97175.50;;;28.49;29.98
2785;BME280;57944;48.722;9.316;2023-04-23T12:25:10;97171.91;;;28.54;30.51
2785;BME280;57944;48.722;9.316;2023-04-23T12:27:41;97169.56;;;28.15;31.24
2785;BME280;57944;48.722;9.316;2023-04-23T12:30:13;97169.44;;;27.99;30.60
2785;BME280;57944;48.722;9.316;2023-04-23T12:32:45;97163.63;;;27.81;30.78
2785;BME280;57944;48.722;9.316;2023-04-23T12:35:15;97157.00;;;27.63;31.21
2785;BME280;57944;48.722;9.316;2023-04-23T12:37:45;97147.63;;;27.74;31.27
2785;BME280;57944;48.722;9.316;2023-04-23T12:40:15;97142.56;;;26.61;31.89
2785;BME280;57944;48.722;9.316;2023-04-23T12:42:45;97140.44;;;26.16;33.66
2785;BME280;57944;48.722;9.316;2023-04-23T12:45:15;97140.59;;;25.46;35.22
2785;BME280;57944;48.722;9.316;2023-04-23T12:47:48;97131.69;;;25.12;35.20
2785;BME280;57944;48.722;9.316;2023-04-23T12:50:18;97141.22;;;25.00;35.39
2785;BME280;57944;48.722;9.316;2023-04-23T12:52:48;97139.97;;;24.80;35.92
2785;BME280;57944;48.722;9.316;2023-04-23T12:55:18;97130.63;;;25.05;34.81
2785;BME280;57944;48.722;9.316;2023-04-23T12:57:48;97121.56;;;24.85;35.62
2785;BME280;57944;48.722;9.316;2023-04-23T13:00:18;97115.59;;;25.36;35.22
2785;BME280;57944;48.722;9.316;2023-04-23T13:02:50;97107.13;;;25.48;34.84
2785;BME280;57944;48.722;9.316;2023-04-23T13:05:21;97114.66;;;25.32;35.61
2785;BME280;57944;48.722;9.316;2023-04-23T13:07:51;97106.53;;;26.87;32.54
2785;BME280;57944;48.722;9.316;2023-04-23T13:10:22;97103.72;;;27.80;31.98
2785;BME280;57944;48.722;9.316;2023-04-23T13:12:52;97093.06;;;27.52;32.05
2785;BME280;57944;48.722;9.316;2023-04-23T13:15:22;97089.41;;;26.78;33.64
2785;BME280;57944;48.722;9.316;2023-04-23T13:17:55;97083.47;;;26.09;34.07
2785;BME280;57944;48.722;9.316;2023-04-23T13:20:25;97076.94;;;25.12;35.42
2785;BME280;57944;48.722;9.316;2023-04-23T13:22:55;97071.03;;;24.28;36.52
2785;BME280;57944;48.722;9.316;2023-04-23T13:25:25;97065.28;;;25.01;35.86
2785;BME280;57944;48.722;9.316;2023-04-23T13:27:55;97054.41;;;24.64;35.60
2785;BME280;57944;48.722;9.316;2023-04-23T13:30:25;97041.06;;;24.57;35.88